Time;durP1;ratioP1;P1;durP2;ratioP2;P2;SDS_P1;SDS_P2;PMS_P1;PMS_P2;Temp;Humidity;BMP_temperature;BMP_pressure;BME280_temperature;BME280_humidity;BME280_pressure;Samples;Min_cycle;Max_cycle;Signal;HPM_P1;HPM_P2
2022/09/20 00:00:24;;;;;;;2.22;1.98;;;;;;;7.89;90.18;96068.78;4986972;28;20023;-59
2022/09/20 00:02:49;;;;;;;2.00;1.90;;;;;;;7.92;90.07;96065.09;4984004;28;20030;-59
2022/09/20 00:05:14;;;;;;;2.97;2.78;;;;;;;7.92;89.47;96074.72;4987894;28;20576;-59
2022/09/20 00:07:43;;;;;;;2.33;2.22;;;;;;;7.86;89.74;96069.00;4984352;28;20026;-60
2022/09/20 00:10:09;;;;;;;2.45;1.88;;;;;;;7.83;90.20;96071.88;4981503;28;20069;-59
2022/09/20 00:12:34;;;;;;;2.00;1.90;;;;;;;7.80;91.32;96079.13;4983364;28;20053;-59
2022/09/20 00:14:59;;;;;;;3.55;2.10;;;;;;;7.78;90.56;96075.78;4987817;28;20486;-59
2022/09/20 00:17:25;;;;;;;1.77;1.67;;;;;;;7.78;91.44;96074.00;4980572;28;20110;-59
2022/09/20 00:19:50;;;;;;;2.00;1.90;;;;;;;7.76;91.71;96075.06;4983456;28;20018;-59
2022/09/20 00:22:15;;;;;;;2.00;1.90;;;;;;;7.67;93.75;96071.34;4982647;28;20490;-59
2022/09/20 00:24:41;;;;;;;2.25;1.95;;;;;;;7.65;92.75;96075.84;4985923;28;20076;-59
2022/09/20 00:27:07;;;;;;;1.90;1.80;;;;;;;7.65;92.50;96075.84;4986852;28;20065;-59
2022/09/20 00:29:32;;;;;;;1.98;1.88;;;;;;;7.62;92.29;96070.84;4984849;28;20041;-59
2022/09/20 00:31:57;;;;;;;2.20;1.90;;;;;;;7.59;94.00;96080.63;4976821;28;20030;-59
2022/09/20 00:37:06;;;;;;;1.80;1.70;;;;;;;7.57;92.67;96074.66;4984503;28;20038;-60
2022/09/20 00:39:32;;;;;;;2.08;1.98;;;;;;;7.53;93.83;96072.38;4982049;28;20026;-59
2022/09/20 00:41:57;;;;;;;1.58;1.48;;;;;;;7.52;93.13;96071.53;4985227;28;20030;-59
2022/09/20 00:44:54;;;;;;;1.80;1.70;;;;;;;7.52;93.16;96075.94;4982270;28;20019;-59
2022/09/20 00:47:53;;;;;;;2.00;1.90;;;;;;;7.54;92.22;96079.28;4981622;28;20490;-59
2022/09/20 00:50:37;;;;;;;2.53;2.33;;;;;;;7.51;93.24;96071.66;4978524;28;20059;-59
2022/09/20 00:53:33;;;;;;;2.03;1.92;;;;;;;7.47;93.37;96078.06;4973816;28;20034;-59
2022/09/20 00:56:12;;;;;;;2.53;2.42;;;;;;;7.41;93.23;96069.72;4989484;28;20026;-60
2022/09/20 00:58:43;;;;;;;2.50;1.90;;;;;;;7.39;94.60;96073.38;4990088;28;20109;-59
2022/09/20 01:01:09;;;;;;;2.13;2.03;;;;;;;7.34;94.19;96071.09;4984236;28;20109;-59
2022/09/20 01:03:37;;;;;;;2.03;1.90;;;;;;;7.36;94.14;96076.25;4983415;28;20038;-58
2022/09/20 01:06:07;;;;;;;1.85;1.75;;;;;;;7.38;93.35;96077.78;4986707;28;20050;-59
2022/09/20 01:08:35;;;;;;;4.20;2.10;;;;;;;7.35;93.68;96079.81;4990791;28;20045;-59
2022/09/20 01:11:01;;;;;;;2.00;1.90;;;;;;;7.37;93.29;96083.97;4974629;28;20502;-59
2022/09/20 01:13:26;;;;;;;2.55;2.15;;;;;;;7.37;92.54;96083.97;4986696;28;20456;-59
2022/09/20 01:15:52;;;;;;;1.90;1.80;;;;;;;7.38;93.07;96085.63;4985609;28;20043;-59
2022/09/20 01:18:19;;;;;;;3.00;1.80;;;;;;;7.36;93.28;96084.91;4988670;28;20109;-59
2022/09/20 01:20:46;;;;;;;2.13;2.03;;;;;;;7.37;93.02;96083.97;4983991;28;20031;-59
2022/09/20 01:23:26;;;;;;;1.92;1.83;;;;;;;7.32;93.20;96078.25;4989960;28;20042;-59
2022/09/20 01:26:07;;;;;;;2.50;2.00;;;;;;;7.34;92.89;96081.56;4988013;28;20030;-59
2022/09/20 01:28:33;;;;;;;2.25;2.00;;;;;;;7.28;93.55;96082.03;4986550;28;20030;-59
2022/09/20 01:31:23;;;;;;;2.08;1.92;;;;;;;7.18;95.67;96079.25;4982828;28;20046;-59
2022/09/20 01:33:51;;;;;;;1.98;1.70;;;;;;;7.13;95.22;96081.38;4993343;28;20489;-59
2022/09/20 01:36:23;;;;;;;1.92;1.83;;;;;;;7.09;96.10;96079.94;4988668;28;20022;-59
2022/09/20 01:39:24;;;;;;;1.85;1.77;;;;;;;7.07;96.14;96077.41;4982048;28;20554;-59
2022/09/20 01:41:52;;;;;;;2.00;1.90;;;;;;;7.08;95.11;96079.06;4987086;28;20214;-59
2022/09/20 01:44:47;;;;;;;2.85;1.90;;;;;;;7.05;95.71;96078.44;4985333;28;20038;-59
2022/09/20 01:47:31;;;;;;;1.83;1.75;;;;;;;7.03;95.71;96078.56;4987162;28;20050;-59
2022/09/20 01:50:14;;;;;;;2.60;1.80;;;;;;;6.99;96.61;96072.72;4987370;28;20042;-60
2022/09/20 01:52:55;;;;;;;6.95;6.15;;;;;;;6.98;96.18;96086.75;4988112;28;20031;-59
2022/09/20 01:55:55;;;;;;;9.35;8.05;;;;;;;6.98;95.60;96084.13;4991867;28;20026;-59
2022/09/20 01:58:39;;;;;;;3.63;3.33;;;;;;;6.99;95.97;96077.13;4986144;28;20026;-59
2022/09/20 02:01:13;;;;;;;2.40;2.20;;;;;;;6.99;95.80;96084.97;4985504;28;20041;-60
2022/09/20 02:04:12;;;;;;;2.38;2.00;;;;;;;6.96;96.15;96074.72;4985905;28;20075;-59
2022/09/20 02:06:59;;;;;;;2.22;1.95;;;;;;;6.95;96.52;96078.28;4991056;28;20054;-59
2022/09/20 02:09:51;;;;;;;2.38;2.00;;;;;;;6.93;95.48;96085.41;4986423;28;20026;-59
2022/09/20 02:12:37;;;;;;;2.35;2.22;;;;;;;6.89;95.82;96090.03;4972947;28;20038;-60
2022/09/20 02:15:35;;;;;;;2.58;2.38;;;;;;;6.86;96.23;96085.84;4988588;28;20036;-59
2022/09/20 02:18:33;;;;;;;1.98;1.88;;;;;;;6.84;97.25;96085.13;4978725;28;20026;-59
2022/09/20 02:21:28;;;;;;;2.40;2.22;;;;;;;6.80;97.60;96088.91;4937875;28;20054;-59
2022/09/20 02:24:15;;;;;;;2.67;2.30;;;;;;;6.79;97.82;96092.47;4983455;28;20031;-59
2022/09/20 02:27:04;;;;;;;2.22;2.13;;;;;;;6.77;97.23;96094.38;4981839;28;20285;-59
2022/09/20 02:29:35;;;;;;;4.47;2.30;;;;;;;6.74;97.98;96090.16;4990378;28;20112;-59
2022/09/20 02:32:25;;;;;;;2.25;2.10;;;;;;;6.70;97.91;96086.09;4991018;28;20030;-59
2022/09/20 02:35:11;;;;;;;2.13;2.03;;;;;;;6.65;98.62;96087.38;4985647;28;20101;-59
2022/09/20 02:38:13;;;;;;;2.22;2.08;;;;;;;6.63;98.04;96087.50;4988076;28;20113;-59
2022/09/20 02:40:51;;;;;;;4.60;2.13;;;;;;;6.67;97.36;96080.25;4989332;28;20129;-59
2022/09/20 02:43:22;;;;;;;2.20;2.10;;;;;;;6.62;98.24;96079.75;4981253;28;20035;-59
2022/09/20 02:45:53;;;;;;;2.25;2.13;;;;;;;6.58;98.57;96081.72;4985297;28;20022;-59
2022/09/20 02:48:28;;;;;;;2.90;2.22;;;;;;;6.54;100.00;96075.88;4986276;28;20498;-59
2022/09/20 02:51:32;;;;;;;2.47;2.22;;;;;;;6.55;100.00;96077.56;4989586;28;20504;-59
2022/09/20 02:54:09;;;;;;;1.95;1.85;;;;;;;6.52;100.00;96069.94;4985438;28;20034;-59
2022/09/20 02:57:04;;;;;;;2.13;2.00;;;;;;;6.52;100.00;96079.53;4987158;28;20549;-59
2022/09/20 02:59:39;;;;;;;2.30;2.20;;;;;;;6.48;99.44;96072.84;4983236;28;20062;-59
2022/09/20 03:02:18;;;;;;;2.30;2.20;;;;;;;6.47;99.61;96074.63;4987752;28;20037;-59
2022/09/20 03:05:01;;;;;;;2.70;2.33;;;;;;;6.48;98.91;96075.47;4983765;28;20038;-59
2022/09/20 03:08:01;;;;;;;2.35;2.15;;;;;;;6.47;99.63;96074.63;4990012;28;20421;-59
2022/09/20 03:10:32;;;;;;;2.50;2.30;;;;;;;6.43;99.97;96084.50;4977689;28;20014;-59
2022/09/20 03:13:21;;;;;;;2.58;2.38;;;;;;;6.47;99.51;96072.00;4990871;28;20014;-59
2022/09/20 03:16:02;;;;;;;3.28;2.72;;;;;;;6.46;100.00;96072.94;4985670;28;20030;-59
2022/09/20 03:18:56;;;;;;;2.40;2.20;;;;;;;6.40;100.00;96076.00;4984889;28;20125;-59
2022/09/20 03:21:54;;;;;;;4.32;2.13;;;;;;;6.33;100.00;96077.38;4989645;28;20034;-59
2022/09/20 03:24:53;;;;;;;2.35;2.13;;;;;;;6.30;100.00;96068.81;4983296;28;20030;-59
2022/09/20 03:27:30;;;;;;;3.15;1.73;;;;;;;6.23;100.00;96078.00;4988617;28;20046;-59
2022/09/20 03:30:15;;;;;;;2.10;2.00;;;;;;;6.20;100.00;96070.38;4987851;28;20173;-59
2022/09/20 03:33:06;;;;;;;2.00;1.90;;;;;;;6.16;100.00;96079.38;4983985;28;20037;-59
2022/09/20 03:35:31;;;;;;;2.15;2.05;;;;;;;6.11;100.00;96068.41;4986693;28;20065;-59
2022/09/20 03:38:23;;;;;;;2.20;2.00;;;;;;;6.11;100.00;96068.41;4987044;28;20482;-59
2022/09/20 03:41:18;;;;;;;1.98;1.88;;;;;;;6.14;100.00;96071.63;4980828;28;20030;-59
2022/09/20 03:43:55;;;;;;;2.40;2.20;;;;;;;6.19;100.00;96073.94;4980331;28;20429;-59
2022/09/20 03:46:29;;;;;;;2.20;2.00;;;;;;;6.16;100.00;96076.75;4981560;28;20031;-59
2022/09/20 03:49:15;;;;;;;2.88;2.30;;;;;;;6.12;100.00;96083.97;4980535;28;20068;-59
2022/09/20 03:51:59;;;;;;;2.13;2.03;;;;;;;6.13;100.00;96077.78;4981325;28;20034;-59
2022/09/20 03:54:49;;;;;;;2.50;2.20;;;;;;;6.17;100.00;96078.44;4983359;28;20034;-59
2022/09/20 03:57:29;;;;;;;2.47;2.28;;;;;;;6.14;100.00;96076.03;4982981;28;20041;-58
2022/09/20 04:00:33;;;;;;;2.40;1.90;;;;;;;6.18;100.00;96074.03;4987731;28;20077;-59
2022/09/20 04:03:35;;;;;;;2.17;2.05;;;;;;;6.18;100.00;96074.88;4890905;29;20036;-59
2022/09/20 04:06:21;;;;;;;2.58;2.38;;;;;;;6.18;100.00;96074.03;4892056;29;20056;-59
2022/09/20 04:09:28;;;;;;;2.55;2.35;;;;;;;6.14;100.00;96081.25;4975349;28;20038;-59
2022/09/20 04:12:26;;;;;;;2.63;2.22;;;;;;;6.07;100.00;96077.38;4988446;28;20422;-59
2022/09/20 04:15:14;;;;;;;2.00;1.90;;;;;;;6.04;100.00;96082.81;4987333;28;20494;-59
2022/09/20 04:18:32;;;;;;;2.35;2.15;;;;;;;6.04;100.00;96077.59;4981479;28;20022;-59
2022/09/20 04:21:16;;;;;;;2.90;2.42;;;;;;;6.06;100.00;96080.91;4965179;28;20133;-58
2022/09/20 04:24:03;;;;;;;3.08;2.30;;;;;;;6.08;100.00;96087.72;4987319;28;20104;-59
2022/09/20 04:26:33;;;;;;;2.47;2.28;;;;;;;6.01;100.00;96079.47;4989405;28;20041;-59
2022/09/20 04:29:44;;;;;;;2.63;2.50;;;;;;;6.01;100.00;96081.25;4983139;28;20041;-59
2022/09/20 04:32:18;;;;;;;2.38;2.15;;;;;;;6.00;100.00;96077.75;4988855;28;20117;-59
2022/09/20 04:37:50;;;;;;;2.30;2.10;;;;;;;5.97;100.00;96079.78;4981936;28;20059;-59
2022/09/20 04:40:55;;;;;;;2.10;2.00;;;;;;;5.90;100.00;96081.94;4980017;28;20058;-59
2022/09/20 04:43:52;;;;;;;3.17;2.10;;;;;;;5.92;100.00;96084.44;4984117;28;20038;-59
2022/09/20 04:46:36;;;;;;;3.28;2.10;;;;;;;5.94;100.00;96091.25;4985516;28;20421;-59
2022/09/20 04:49:30;;;;;;;2.25;2.15;;;;;;;5.95;100.00;96086.84;4983039;28;20029;-58
2022/09/20 04:52:21;;;;;;;2.95;2.20;;;;;;;5.89;100.00;96095.97;4980441;28;20486;-59
2022/09/20 04:54:59;;;;;;;3.10;2.17;;;;;;;5.88;100.00;96082.03;4977659;28;20050;-59
2022/09/20 04:57:44;;;;;;;4.75;2.20;;;;;;;5.91;100.00;96093.22;4984137;28;20113;-59
2022/09/20 05:00:17;;;;;;;2.42;2.20;;;;;;;5.91;100.00;96107.16;4982124;28;20054;-59
2022/09/20 05:03:09;;;;;;;3.80;2.40;;;;;;;5.89;100.00;96095.97;4978147;28;20153;-59
2022/09/20 05:05:54;;;;;;;5.40;2.50;;;;;;;5.90;100.00;96095.03;4951840;28;20466;-59
2022/09/20 05:08:29;;;;;;;2.33;2.20;;;;;;;5.87;100.00;96098.66;4967315;28;20086;-58
2022/09/20 05:11:09;;;;;;;2.50;2.30;;;;;;;5.83;100.00;96101.56;4970740;28;20023;-59
2022/09/20 05:13:48;;;;;;;5.38;2.67;;;;;;;5.76;100.00;96095.94;4970728;28;20101;-59
2022/09/20 05:16:58;;;;;;;4.97;2.17;;;;;;;5.72;100.00;96100.53;4959516;28;20119;-59
2022/09/20 05:19:25;;;;;;;3.13;2.30;;;;;;;5.70;100.00;96106.78;4959733;28;20418;-59
2022/09/20 05:22:05;;;;;;;2.40;2.22;;;;;;;5.71;100.00;96103.22;4969802;28;20034;-59
2022/09/20 05:24:39;;;;;;;2.35;2.13;;;;;;;5.73;100.00;96110.03;4970238;28;20034;-59
2022/09/20 05:27:11;;;;;;;3.35;2.28;;;;;;;5.70;100.00;96107.63;4969785;28;20027;-59
2022/09/20 05:29:45;;;;;;;5.82;2.30;;;;;;;5.65;100.00;96112.34;4958736;28;20406;-59
2022/09/20 05:32:23;;;;;;;3.13;2.35;;;;;;;5.67;100.00;96107.84;4969917;28;20030;-59
2022/09/20 05:35:07;;;;;;;2.63;2.42;;;;;;;5.65;100.00;96109.72;4973679;28;20597;-59
2022/09/20 05:38:10;;;;;;;2.80;2.60;;;;;;;5.61;100.00;96113.44;4965278;28;20102;-59
2022/09/20 05:41:28;;;;;;;3.10;2.70;;;;;;;5.56;100.00;96107.69;4971103;28;20046;-58
2022/09/20 05:44:01;;;;;;;2.40;2.20;;;;;;;5.51;100.00;96118.44;4940495;28;20502;-59
2022/09/20 05:46:43;;;;;;;2.20;2.03;;;;;;;5.53;100.00;96116.59;4972095;28;20034;-59
2022/09/20 05:49:33;;;;;;;2.75;2.55;;;;;;;5.59;100.00;96126.63;4971790;28;20026;-59
2022/09/20 05:52:13;;;;;;;4.38;2.85;;;;;;;5.63;100.00;96118.59;4973401;28;20031;-59
2022/09/20 05:54:50;;;;;;;2.22;2.13;;;;;;;5.66;100.00;96126.22;4971711;28;20093;-59
2022/09/20 05:57:34;;;;;;;2.25;2.13;;;;;;;5.68;100.00;96127.81;4973394;28;20073;-59
2022/09/20 06:00:27;;;;;;;4.70;2.58;;;;;;;5.70;100.00;96128.53;4973598;28;20023;-58
2022/09/20 06:03:23;;;;;;;2.72;2.53;;;;;;;5.72;100.00;96120.56;4973136;28;20049;-58
2022/09/20 06:05:57;;;;;;;3.08;2.78;;;;;;;5.68;100.00;96114.75;4971864;28;20469;-58
2022/09/20 06:08:25;;;;;;;4.13;2.70;;;;;;;5.68;100.00;96127.81;4984192;28;20059;-59
2022/09/20 06:11:29;;;;;;;2.97;2.75;;;;;;;5.68;100.00;96125.19;4969975;28;20022;-58
2022/09/20 06:14:19;;;;;;;2.90;2.65;;;;;;;5.66;100.00;96121.84;4990488;28;20504;-59
2022/09/20 06:17:23;;;;;;;4.47;3.60;;;;;;;5.68;100.00;96130.41;4987675;28;20030;-57
2022/09/20 06:20:25;;;;;;;3.20;2.90;;;;;;;5.77;100.00;96138.56;4991953;28;20027;-58
2022/09/20 06:22:55;;;;;;;3.58;3.00;;;;;;;5.81;100.00;96130.44;4981244;28;20041;-57
2022/09/20 06:25:30;;;;;;;2.78;2.50;;;;;;;5.85;100.00;96128.44;4990194;28;20069;-58
2022/09/20 06:28:05;;;;;;;8.13;3.05;;;;;;;5.88;100.00;96131.69;4992708;28;20105;-58
2022/09/20 06:30:35;;;;;;;5.93;2.88;;;;;;;5.92;100.00;96131.50;4992518;28;20505;-57
2022/09/20 06:33:07;;;;;;;2.80;2.60;;;;;;;5.95;100.00;96137.34;4989758;28;20270;-58
2022/09/20 06:35:39;;;;;;;4.70;3.40;;;;;;;5.98;100.00;96136.31;4983989;28;20042;-59
2022/09/20 06:41:28;;;;;;;2.50;2.33;;;;;;;6.03;100.00;96134.25;4990253;28;20033;-58
2022/09/20 06:43:58;;;;;;;3.40;3.10;;;;;;;6.07;100.00;96135.72;4989636;28;20497;-58
2022/09/20 06:46:29;;;;;;;2.70;2.50;;;;;;;6.06;100.00;96133.22;4988548;28;20022;-58
2022/09/20 06:48:56;;;;;;;5.60;2.60;;;;;;;6.07;100.00;96137.50;4987534;28;20072;-58
2022/09/20 06:51:23;;;;;;;5.53;2.50;;;;;;;6.12;100.00;96136.25;4981117;28;20495;-59
2022/09/20 06:53:49;;;;;;;2.78;2.58;;;;;;;6.16;100.00;96131.66;4980655;28;20610;-59
2022/09/20 06:56:19;;;;;;;2.53;2.33;;;;;;;6.21;100.00;96133.97;4984859;28;20035;-59
2022/09/20 06:58:45;;;;;;;4.05;2.88;;;;;;;6.23;100.00;96130.28;4989260;28;20027;-59
2022/09/20 07:01:12;;;;;;;2.92;2.72;;;;;;;6.24;100.00;96136.38;4991897;28;20033;-59
2022/09/20 07:03:38;;;;;;;3.28;2.97;;;;;;;6.23;100.00;96138.13;4984518;28;20398;-58
2022/09/20 07:06:04;;;;;;;5.55;3.15;;;;;;;6.25;100.00;96133.63;4958801;28;20430;-58
2022/09/20 07:08:29;;;;;;;3.47;3.17;;;;;;;6.34;100.00;96132.19;4987599;28;20030;-57
2022/09/20 07:10:54;;;;;;;5.47;3.65;;;;;;;6.61;100.00;96133.81;4987796;28;20057;-59
2022/09/20 07:13:20;;;;;;;13.57;6.07;;;;;;;6.98;99.51;96133.06;4972163;28;20027;-58
2022/09/20 07:15:45;;;;;;;10.95;4.85;;;;;;;7.35;97.45;96132.19;4990100;28;20078;-59
2022/09/20 07:18:11;;;;;;;8.75;4.82;;;;;;;7.73;98.10;96139.88;4989120;28;20037;-59
2022/09/20 07:20:37;;;;;;;5.43;4.00;;;;;;;8.02;95.50;96142.09;4990583;28;20022;-58
2022/09/20 07:23:02;;;;;;;4.85;3.55;;;;;;;8.17;94.60;96142.72;4990344;28;20061;-58
2022/09/20 07:25:30;;;;;;;3.72;3.15;;;;;;;8.35;93.51;96134.41;4988436;28;20410;-58
2022/09/20 07:27:56;;;;;;;5.05;2.60;;;;;;;8.44;92.78;96136.34;4990292;28;20504;-58
2022/09/20 07:30:22;;;;;;;3.83;3.03;;;;;;;8.57;90.98;96143.28;4990678;28;20509;-59
2022/09/20 07:32:47;;;;;;;3.30;2.70;;;;;;;8.58;90.95;96137.94;4989663;28;20104;-59
2022/09/20 07:35:13;;;;;;;3.10;2.60;;;;;;;8.70;90.56;96138.78;4989732;28;20784;-59
2022/09/20 07:37:41;;;;;;;2.00;1.90;;;;;;;8.78;90.27;96138.19;4989111;28;20442;-57
2022/09/20 07:40:09;;;;;;;4.13;2.35;;;;;;;9.14;89.52;96138.84;4990811;28;20080;-62
2022/09/20 07:42:35;;;;;;;2.45;2.25;;;;;;;9.45;87.80;96140.81;4990547;28;20018;-59
2022/09/20 07:45:01;;;;;;;1.90;1.80;;;;;;;9.58;87.23;96143.28;4990683;28;20033;-58
2022/09/20 07:47:30;;;;;;;2.25;1.92;;;;;;;9.69;85.67;96148.50;4989622;28;20030;-58
2022/09/20 07:49:55;;;;;;;2.13;2.03;;;;;;;9.78;84.89;96141.66;4990226;28;20026;-59
2022/09/20 07:52:21;;;;;;;2.10;2.00;;;;;;;9.70;84.28;96146.69;4989699;28;20402;-58
2022/09/20 07:54:47;;;;;;;4.68;2.42;;;;;;;9.78;85.20;96146.06;4988837;28;20407;-58
2022/09/20 07:57:12;;;;;;;8.52;2.58;;;;;;;9.87;83.03;96148.78;4988148;28;20030;-59
2022/09/20 07:59:38;;;;;;;2.53;2.08;;;;;;;9.94;81.75;96143.00;4987132;28;20029;-59
2022/09/20 08:02:03;;;;;;;3.50;2.20;;;;;;;10.01;80.67;96139.75;4988361;28;20037;-59
2022/09/20 08:04:28;;;;;;;2.00;1.90;;;;;;;9.98;81.03;96147.91;4989373;28;20034;-58
2022/09/20 08:06:54;;;;;;;6.43;2.03;;;;;;;9.98;80.46;96147.91;4988715;28;20054;-59
2022/09/20 08:09:19;;;;;;;2.22;2.03;;;;;;;9.97;78.93;96146.22;4988834;28;20478;-59
2022/09/20 08:11:46;;;;;;;2.70;2.50;;;;;;;10.11;80.56;96144.28;4987060;28;20379;-59
2022/09/20 08:14:14;;;;;;;2.10;2.00;;;;;;;10.28;79.97;96143.69;4988544;28;20113;-59
2022/09/20 08:16:42;;;;;;;3.38;2.20;;;;;;;10.36;79.25;96144.84;4988616;28;20026;-59
2022/09/20 08:19:12;;;;;;;2.05;1.92;;;;;;;10.47;79.00;96136.88;4989505;28;20552;-59
2022/09/20 08:21:38;;;;;;;1.98;1.75;;;;;;;10.59;77.73;96135.84;4990164;28;20022;-59
2022/09/20 08:24:04;;;;;;;3.50;2.10;;;;;;;10.83;76.89;96139.97;4981602;28;20026;-59
2022/09/20 08:26:34;;;;;;;2.25;1.95;;;;;;;10.99;76.66;96133.38;4987474;28;20018;-59
2022/09/20 08:29:00;;;;;;;1.90;1.80;;;;;;;10.98;75.60;96135.16;4982405;28;20014;-59
2022/09/20 08:31:36;;;;;;;2.28;1.90;;;;;;;10.94;75.03;96139.03;4986087;28;20029;-59
2022/09/20 08:34:03;;;;;;;2.40;2.25;;;;;;;11.08;75.42;96134.38;4983802;28;20034;-59
2022/09/20 08:36:30;;;;;;;10.55;2.17;;;;;;;11.04;75.21;96137.25;4988265;28;20560;-59
2022/09/20 08:38:56;;;;;;;1.77;1.75;;;;;;;11.15;74.37;96131.06;4987130;28;20378;-59
2022/09/20 08:41:29;;;;;;;2.28;2.17;;;;;;;11.29;74.76;96131.66;4982061;28;20034;-60
2022/09/20 08:44:13;;;;;;;2.67;2.25;;;;;;;11.31;73.81;96127.91;4987200;28;20093;-59
2022/09/20 08:46:44;;;;;;;2.38;2.28;;;;;;;11.48;72.78;96135.28;4977280;28;20469;-59
2022/09/20 08:49:18;;;;;;;3.42;2.45;;;;;;;11.60;72.94;96134.19;4982664;28;20034;-59
2022/09/20 08:51:49;;;;;;;2.50;2.30;;;;;;;11.71;72.66;96135.84;4987988;28;20034;-60
2022/09/20 08:54:15;;;;;;;2.88;2.45;;;;;;;11.72;72.39;96125.19;4988239;28;20030;-60
2022/09/20 08:56:43;;;;;;;2.22;1.98;;;;;;;11.87;72.31;96133.50;4988193;28;20125;-60
2022/09/20 08:59:15;;;;;;;2.58;2.05;;;;;;;11.85;71.95;96124.91;4988872;28;20018;-59
2022/09/20 09:01:40;;;;;;;3.25;2.30;;;;;;;11.85;72.18;96129.34;4990285;28;20027;-59
2022/09/20 09:04:18;;;;;;;5.60;2.40;;;;;;;12.06;70.46;96126.59;4989135;28;20108;-60
2022/09/20 09:06:45;;;;;;;2.05;1.95;;;;;;;12.25;69.96;96125.72;4988871;28;20054;-60
2022/09/20 09:09:22;;;;;;;4.88;2.55;;;;;;;12.26;68.34;96130.03;4989953;28;20061;-60
2022/09/20 09:11:50;;;;;;;2.65;2.38;;;;;;;12.36;69.07;96124.72;4990557;28;20027;-60
2022/09/20 09:17:24;;;;;;;2.60;2.20;;;;;;;12.57;67.33;96119.25;4991164;28;20592;-60
2022/09/20 09:19:54;;;;;;;3.53;2.40;;;;;;;12.68;68.03;96118.25;4991890;28;20030;-60
2022/09/20 09:22:23;;;;;;;2.53;2.33;;;;;;;12.73;66.56;96118.66;4990384;28;20030;-60
2022/09/20 09:25:15;;;;;;;2.75;2.38;;;;;;;12.82;63.50;96113.47;4991768;28;20508;-60
2022/09/20 09:27:56;;;;;;;2.45;2.25;;;;;;;12.78;64.93;96123.50;4989499;28;20034;-60
2022/09/20 09:30:29;;;;;;;3.50;2.47;;;;;;;12.71;65.57;96119.75;4991676;28;20022;-60
2022/09/20 09:33:24;;;;;;;2.40;2.20;;;;;;;12.72;64.50;96116.97;4993080;28;20485;-60
2022/09/20 09:35:59;;;;;;;2.22;2.10;;;;;;;12.86;64.80;96115.66;4968430;28;20045;-60
2022/09/20 09:38:36;;;;;;;2.25;2.08;;;;;;;12.78;65.71;96123.50;4991089;28;20413;-60
2022/09/20 09:41:07;;;;;;;3.17;2.20;;;;;;;12.79;65.51;96114.59;4992409;28;20031;-60
2022/09/20 09:43:34;;;;;;;2.20;2.10;;;;;;;13.05;64.77;96119.22;4992675;28;20509;-60
2022/09/20 09:46:36;;;;;;;1.98;1.83;;;;;;;13.06;63.00;96117.41;4991619;28;20036;-60
2022/09/20 09:49:15;;;;;;;4.93;2.38;;;;;;;13.12;63.38;96119.47;4910266;29;20039;-59
2022/09/20 09:52:04;;;;;;;1.98;1.88;;;;;;;13.10;63.87;96122.22;4982873;28;20547;-60
2022/09/20 09:54:50;;;;;;;2.20;2.00;;;;;;;13.09;63.50;96115.28;4983766;28;20034;-60
2022/09/20 09:57:54;;;;;;;3.17;2.10;;;;;;;13.29;63.40;96109.88;4988659;28;20019;-60
2022/09/20 10:00:22;;;;;;;3.25;2.03;;;;;;;13.30;62.28;96112.41;4989532;28;20034;-60
2022/09/20 10:02:56;;;;;;;4.05;2.00;;;;;;;13.30;63.41;96106.25;4990816;28;20034;-59
2022/09/20 10:05:56;;;;;;;3.20;2.45;;;;;;;13.50;63.24;96106.16;4990759;28;20026;-61
2022/09/20 10:08:34;;;;;;;1.98;1.88;;;;;;;13.69;62.80;96100.75;4989367;28;20581;-61
2022/09/20 10:11:20;;;;;;;2.30;2.10;;;;;;;13.61;61.75;96103.31;4989263;28;20019;-61
2022/09/20 10:14:16;;;;;;;2.35;2.17;;;;;;;13.79;59.73;96105.09;4990249;28;20129;-61
2022/09/20 10:17:09;;;;;;;1.90;1.73;;;;;;;13.72;59.63;96100.44;4990111;28;20065;-61
2022/09/20 10:20:01;;;;;;;2.03;1.92;;;;;;;13.81;60.79;96103.13;4954922;28;20180;-61
2022/09/20 10:22:48;;;;;;;2.03;1.90;;;;;;;13.89;58.65;96105.88;4990563;28;20038;-61
2022/09/20 10:25:34;;;;;;;2.30;2.10;;;;;;;13.92;61.41;96096.78;4988551;28;20116;-61
2022/09/20 10:28:10;;;;;;;2.22;2.13;;;;;;;14.00;59.52;96094.22;4989000;28;20026;-61
2022/09/20 10:30:55;;;;;;;2.28;1.90;;;;;;;14.13;59.82;96086.69;4986188;28;20030;-62
2022/09/20 10:33:49;;;;;;;4.40;1.90;;;;;;;14.26;59.40;96094.25;4989140;28;20027;-61
2022/09/20 10:36:46;;;;;;;3.03;2.05;;;;;;;14.59;58.09;96089.13;4989575;28;20528;-61
2022/09/20 10:39:27;;;;;;;2.60;1.70;;;;;;;14.69;57.93;96094.31;4983561;28;20092;-61
2022/09/20 10:45:26;;;;;;;3.50;1.90;;;;;;;15.11;55.98;96090.03;4990415;28;20520;-65
2022/09/20 10:48:07;;;;;;;1.90;1.80;;;;;;;15.28;55.16;96079.50;4990177;28;20549;-65
2022/09/20 10:50:54;;;;;;;2.40;1.98;;;;;;;15.51;54.95;96084.19;4991181;28;20026;-64
2022/09/20 10:53:42;;;;;;;2.10;1.88;;;;;;;15.70;53.36;96077.75;4973851;28;20037;-66
2022/09/20 10:56:27;;;;;;;2.10;2.00;;;;;;;15.70;53.47;96077.75;4980984;28;20030;-64
2022/09/20 10:59:17;;;;;;;2.10;2.00;;;;;;;15.93;52.51;96085.09;4990431;28;20030;-64
2022/09/20 11:02:10;;;;;;;2.10;2.00;;;;;;;16.07;52.26;96075.63;4987741;28;20101;-64
2022/09/20 11:05:13;;;;;;;2.08;1.88;;;;;;;16.44;52.71;96079.56;4989574;28;20477;-63
2022/09/20 11:08:02;;;;;;;1.75;1.65;;;;;;;16.72;52.28;96072.00;4989625;28;20038;-63
2022/09/20 11:10:38;;;;;;;2.72;2.08;;;;;;;17.08;50.67;96076.06;4989696;28;20114;-63
2022/09/20 11:13:26;;;;;;;2.33;1.63;;;;;;;17.40;48.88;96068.06;4987286;28;20045;-62
2022/09/20 11:16:10;;;;;;;1.85;1.45;;;;;;;17.39;50.66;96069.91;4988719;28;20034;-63
2022/09/20 11:18:51;;;;;;;2.10;1.88;;;;;;;17.53;50.17;96065.66;4986401;28;20033;-61
2022/09/20 11:21:27;;;;;;;3.60;2.00;;;;;;;17.85;49.76;96066.44;4986766;28;20018;-63
2022/09/20 11:24:04;;;;;;;3.30;2.00;;;;;;;17.99;48.41;96066.66;4989079;28;20030;-62
2022/09/20 11:26:36;;;;;;;2.97;1.98;;;;;;;18.12;47.57;96072.22;4984935;28;20532;-63
2022/09/20 11:29:15;;;;;;;2.22;2.00;;;;;;;18.33;47.53;96066.22;4988305;28;20037;-60
2022/09/20 11:31:44;;;;;;;2.08;1.98;;;;;;;18.56;47.05;96061.81;4986925;28;20034;-60
2022/09/20 11:34:22;;;;;;;2.20;2.00;;;;;;;18.45;46.58;96063.94;4990302;28;20501;-60
2022/09/20 11:36:56;;;;;;;1.65;1.55;;;;;;;18.74;47.83;96064.94;4987138;28;20034;-61
2022/09/20 11:39:29;;;;;;;2.50;2.30;;;;;;;18.61;46.45;96062.91;4988611;28;20026;-60
2022/09/20 11:41:58;;;;;;;1.95;1.83;;;;;;;18.45;46.58;96061.25;4989291;28;20115;-60
2022/09/20 11:44:24;;;;;;;2.70;1.65;;;;;;;18.37;47.29;96061.34;4988584;28;20168;-60
2022/09/20 11:47:02;;;;;;;3.35;1.88;;;;;;;18.09;48.43;96064.59;4988850;28;20033;-63
2022/09/20 11:49:41;;;;;;;2.63;2.30;;;;;;;18.26;47.43;96056.47;4986183;28;20018;-60
2022/09/20 11:52:35;;;;;;;1.98;1.80;;;;;;;18.30;46.44;96050.59;4988870;28;20033;-60
2022/09/20 11:55:36;;;;;;;2.08;1.70;;;;;;;18.47;47.10;96055.75;4985225;28;20052;-60
2022/09/20 11:58:11;;;;;;;2.35;1.60;;;;;;;18.57;46.40;96047.50;4970719;28;20054;-60
2022/09/20 12:00:43;;;;;;;2.78;1.77;;;;;;;18.20;46.79;96055.34;4988539;28;20084;-60
2022/09/20 12:03:40;;;;;;;1.98;1.60;;;;;;;18.61;44.84;96051.44;4990509;28;20030;-60
2022/09/20 12:06:19;;;;;;;2.10;1.60;;;;;;;18.50;47.34;96055.41;4975150;28;20513;-60
2022/09/20 12:08:48;;;;;;;1.60;1.50;;;;;;;18.63;46.74;96049.41;4987452;28;20402;-63
2022/09/20 12:11:15;;;;;;;1.80;1.70;;;;;;;18.96;45.69;96037.53;4989677;28;20034;-62
2022/09/20 12:13:50;;;;;;;2.50;1.70;;;;;;;19.07;44.56;96047.75;4989898;28;20515;-60
2022/09/20 12:16:41;;;;;;;3.35;1.60;;;;;;;19.06;46.28;96043.41;4978123;28;20037;-60
2022/09/20 12:19:12;;;;;;;2.20;1.95;;;;;;;19.39;45.24;96040.31;4988688;28;20034;-60
2022/09/20 12:21:57;;;;;;;1.70;1.60;;;;;;;19.64;44.68;96031.94;4988406;28;20042;-60
2022/09/20 12:24:24;;;;;;;2.08;1.50;;;;;;;19.52;45.05;96030.78;4989174;28;20042;-60
2022/09/20 12:26:50;;;;;;;6.07;1.80;;;;;;;19.67;43.04;96028.88;4989192;28;20054;-60
2022/09/20 12:29:22;;;;;;;1.52;1.42;;;;;;;19.80;44.32;96030.84;4985757;28;20046;-60
2022/09/20 12:31:49;;;;;;;2.95;1.92;;;;;;;19.96;41.39;96035.13;4988240;28;20441;-61
2022/09/20 12:34:18;;;;;;;2.97;1.77;;;;;;;19.72;43.45;96020.31;4989414;28;20045;-60
2022/09/20 12:36:50;;;;;;;3.25;1.40;;;;;;;19.42;45.08;96023.91;4989110;28;20056;-61
2022/09/20 12:39:18;;;;;;;1.40;1.35;;;;;;;19.38;44.74;96022.66;4989375;28;20042;-61
2022/09/20 12:42:00;;;;;;;1.73;1.35;;;;;;;19.73;45.26;96030.78;4989729;28;20034;-60
2022/09/20 12:44:28;;;;;;;3.70;1.40;;;;;;;20.54;42.62;96026.06;4987894;28;20105;-60